Viking Queen — WDB9919 — position and weather

sailwx.info

Track history (hours):
 
Tides and Currents Weather Stations Pressure Air Temp Water Temp Dewpoint Dewpoint Depression Visibility Wind Speed Wind Dir Waves Ship Positions

Viking Queen

Owner: American River Transportation Company, St Louis, MO. More information available from US FCC via Universal Licensing System and Coast Guard Vessel Documentation Center.

Last reported at 2016-Sep-22 20:32 UTC. Time now 2016-Sep-27 07:01 UTC.
Position N 32°43' W 091°03'.

; draft 3.2 m.

Type: Towing. MMSI: 366985050.

Date/timePositionNaut miles runAvg speedWind from/ knotsBaromVisibWave heightAir tempDewpointWater temp
2016-Sep-22 20:32N 32°43' W 091°03'28 3.5
2016-Sep-22 12:33N 32°16' W 090°58'32 4.0
2016-Sep-22 04:33N 31°50' W 091°21'115 2.7
2016-Sep-20 10:24N 30°03' W 090°33'10 4.7
2016-Sep-20 08:22N 29°58' W 090°24'4 5.0
2016-Sep-20 07:30N 29°56' W 090°19'2 2.3
2016-Sep-20 06:33N 29°58' W 090°17'3 0.8
2016-Sep-20 02:33N 29°57' W 090°14'0 0.0
2016-Sep-19 23:34N 29°57' W 090°14'0 0.0
2016-Sep-19 19:34N 29°57' W 090°14'0 0.0
2016-Sep-19 18:34N 29°57' W 090°14'0 0.0
2016-Sep-19 16:33N 29°57' W 090°14'0 0.0
2016-Sep-19 14:34N 29°57' W 090°14'0 0.0
2016-Sep-19 13:34N 29°57' W 090°14'6 2.9
2016-Sep-19 11:32N 29°56' W 090°20'12 6.0
2016-Sep-19 09:34N 30°03' W 090°32'13 6.7
2016-Sep-19 07:33N 30°00' W 090°47'114 3.5
2016-Sep-17 22:29N 31°51' W 091°20'14 6.0
2016-Sep-17 20:07N 31°59' W 091°06'7 6.5
2016-Sep-17 19:02N 32°06' W 091°06'26 4.6
2016-Sep-17 13:30N 32°32' W 091°06'8 7.2
2016-Sep-17 12:23N 32°40' W 091°08'  
Track history (hours):
 
Tides and Currents Weather Stations Pressure Air Temp Water Temp Dewpoint Dewpoint Depression Visibility Wind Speed Wind Dir Waves Ship Positions

Viking Queen

Owner: American River Transportation Company, St Louis, MO. More information available from US FCC via Universal Licensing System and Coast Guard Vessel Documentation Center.

Last reported at 2016-Sep-22 20:32 UTC. Time now 2016-Sep-27 07:01 UTC.
Position N 32°43' W 091°03'.

; draft 3.2 m.

Type: Towing. MMSI: 366985050.

Date/timePositionNaut miles runAvg speedWind from/ knotsBaromVisibWave heightAir tempDewpointWater temp
2016-Sep-22 20:32N 32°43' W 091°03'28 3.5
2016-Sep-22 12:33N 32°16' W 090°58'32 4.0
2016-Sep-22 04:33N 31°50' W 091°21'115 2.7
2016-Sep-20 10:24N 30°03' W 090°33'10 4.7
2016-Sep-20 08:22N 29°58' W 090°24'4 5.0
2016-Sep-20 07:30N 29°56' W 090°19'2 2.3
2016-Sep-20 06:33N 29°58' W 090°17'3 0.8
2016-Sep-20 02:33N 29°57' W 090°14'0 0.0
2016-Sep-19 23:34N 29°57' W 090°14'0 0.0
2016-Sep-19 19:34N 29°57' W 090°14'0 0.0
2016-Sep-19 18:34N 29°57' W 090°14'0 0.0
2016-Sep-19 16:33N 29°57' W 090°14'0 0.0
2016-Sep-19 14:34N 29°57' W 090°14'0 0.0
2016-Sep-19 13:34N 29°57' W 090°14'6 2.9
2016-Sep-19 11:32N 29°56' W 090°20'12 6.0
2016-Sep-19 09:34N 30°03' W 090°32'13 6.7
2016-Sep-19 07:33N 30°00' W 090°47'114 3.5
2016-Sep-17 22:29N 31°51' W 091°20'14 6.0
2016-Sep-17 20:07N 31°59' W 091°06'7 6.5
2016-Sep-17 19:02N 32°06' W 091°06'26 4.6
2016-Sep-17 13:30N 32°32' W 091°06'8 7.2
2016-Sep-17 12:23N 32°40' W 091°08'  

Dump ship's entire track history